Time;durP1;ratioP1;P1;durP2;ratioP2;P2;SDS_P1;SDS_P2;PMS_P1;PMS_P2;Temp;Humidity;BMP_temperature;BMP_pressure;BME280_temperature;BME280_humidity;BME280_pressure;Samples;Min_cycle;Max_cycle;Signal;HPM_P1;HPM_P2
2022/01/22 00:02:40;;;;;;;;;;;;;;;3.08;100.00;102191.97;5013971;28;20071;-70
2022/01/22 00:05:24;;;;;;;;;;;;;;;3.05;100.00;102192.06;5013757;28;19924;-70
2022/01/22 00:08:08;;;;;;;;;;;;;;;3.06;100.00;102193.78;5013877;28;19924;-70
2022/01/22 00:10:52;;;;;;;;;;;;;;;3.02;100.00;102197.44;5013434;28;20424;-70
2022/01/22 00:16:39;;;;;;;;;;;;;;;3.01;100.00;102190.44;5013744;28;19944;-70
2022/01/22 00:19:23;;;;;;;;;;;;;;;2.93;100.00;102193.31;5014582;28;19924;-70
2022/01/22 00:22:06;;;;;;;;;;;;;;;2.84;100.00;102190.13;4999466;28;19951;-70
2022/01/22 00:24:56;;;;;;;;;;;;;;;2.83;100.00;102194.53;5014581;28;20277;-70
2022/01/22 00:27:40;;;;;;;;;;;;;;;2.83;100.00;102198.94;5013529;28;19968;-70
2022/01/22 00:30:25;;;;;;;;;;;;;;;2.81;100.00;102188.44;5012995;28;19925;-70
2022/01/22 00:33:09;;;;;;;;;;;;;;;2.77;100.00;102183.34;4999476;28;19971;-70
2022/01/22 00:35:53;;;;;;;;;;;;;;;2.81;100.00;102187.56;5013495;28;19924;-70
2022/01/22 00:38:37;;;;;;;;;;;;;;;2.78;100.00;102179.78;4999444;28;19944;-70
2022/01/22 00:41:21;;;;;;;;;;;;;;;2.81;100.00;102187.56;5013216;28;19945;-70
2022/01/22 00:44:05;;;;;;;;;;;;;;;2.81;100.00;102183.19;5013910;28;19924;-70
2022/01/22 00:46:49;;;;;;;;;;;;;;;2.74;100.00;102175.53;5014126;28;19975;-70
2022/01/22 00:49:33;;;;;;;;;;;;;;;2.76;100.00;102185.13;5013793;28;19928;-70
2022/01/22 00:52:17;;;;;;;;;;;;;;;2.75;100.00;102177.25;5012691;28;20300;-69
2022/01/22 00:55:01;;;;;;;;;;;;;;;2.71;100.00;102175.66;5013815;28;19924;-70
2022/01/22 00:57:45;;;;;;;;;;;;;;;2.75;100.00;102172.00;4999137;28;20281;-70
2022/01/22 01:00:29;;;;;;;;;;;;;;;2.70;100.00;102168.63;5013681;28;19967;-70
2022/01/22 01:03:13;;;;;;;;;;;;;;;2.71;100.00;102173.00;5012719;28;19972;-70
2022/01/22 01:05:57;;;;;;;;;;;;;;;2.73;100.00;102165.91;5014081;28;19975;-71
2022/01/22 01:08:42;;;;;;;;;;;;;;;2.78;100.00;102166.63;5012568;28;19924;-71
2022/01/22 01:11:28;;;;;;;;;;;;;;;2.74;100.00;102170.28;5013495;28;19932;-71
2022/01/22 01:14:17;;;;;;;;;;;;;;;2.78;100.00;102174.50;5013523;28;20051;-71
2022/01/22 01:32:19;;;;;;;;;;;;;;;2.77;100.00;102175.44;5013483;28;20274;-70
2022/01/22 01:35:06;;;;;;;;;;;;;;;2.77;100.00;102165.78;5012684;28;20445;-71
2022/01/22 01:37:52;;;;;;;;;;;;;;;2.78;100.00;102167.50;5012264;28;20503;-71
2022/01/22 01:40:40;;;;;;;;;;;;;;;2.79;100.00;102173.59;5012177;28;19928;-71
2022/01/22 01:43:31;;;;;;;;;;;;;;;2.77;100.00;102175.44;5012771;28;19971;-71
2022/01/22 01:46:15;;;;;;;;;;;;;;;2.78;100.00;102185.06;5013291;28;19924;-69
2022/01/22 01:48:59;;;;;;;;;;;;;;;2.77;100.00;102192.09;5013322;28;20321;-70
2022/01/22 01:51:43;;;;;;;;;;;;;;;2.79;100.00;102194.69;5012002;28;20451;-69
2022/01/22 01:54:38;;;;;;;;;;;;;;;2.79;100.00;102190.28;5012196;28;19976;-71
2022/01/22 02:00:13;;;;;;;;;;;;;;;2.80;100.00;102192.00;5012446;28;19924;-71
2022/01/22 02:02:59;;;;;;;;;;;;;;;2.85;100.00;102189.22;4998332;28;19994;-71
2022/01/22 02:05:43;;;;;;;;;;;;;;;2.83;100.00;102191.06;5013294;28;19964;-70
2022/01/22 02:08:26;;;;;;;;;;;;;;;2.86;100.00;102183.91;5012143;28;20036;-71
2022/01/22 02:11:12;;;;;;;;;;;;;;;2.86;100.00;102190.94;5011802;28;19991;-70
2022/01/22 02:26:09;;;;;;;;;;;;;;;2.93;100.00;102171.41;5012855;28;19924;-71
2022/01/22 02:28:53;;;;;;;;;;;;;;;2.89;100.00;102164.50;5011978;28;19971;-71
2022/01/22 02:31:41;;;;;;;;;;;;;;;2.95;100.00;102159.03;5012813;28;19974;-71
2022/01/22 02:34:37;;;;;;;;;;;;;;;2.91;100.00;102160.03;5011719;28;20296;-71
2022/01/22 02:37:24;;;;;;;;;;;;;;;2.87;100.00;102161.06;4999690;28;19924;-71
2022/01/22 02:40:13;;;;;;;;;;;;;;;2.88;100.00;102163.66;5012577;28;19924;-71
2022/01/22 02:42:59;;;;;;;;;;;;;;;2.89;100.00;102164.50;5015365;28;19924;-70
2022/01/22 02:45:44;;;;;;;;;;;;;;;2.87;100.00;102166.31;5015418;28;19928;-71
2022/01/22 02:48:28;;;;;;;;;;;;;;;2.88;100.00;102168.91;5015112;28;20059;-71
2022/01/22 02:51:12;;;;;;;;;;;;;;;2.90;100.00;102160.94;5014900;28;19929;-71
2022/01/22 02:53:56;;;;;;;;;;;;;;;2.91;100.00;102157.38;5015247;28;20338;-71
2022/01/22 02:56:40;;;;;;;;;;;;;;;2.85;100.00;102157.63;5015146;28;20012;-70
2022/01/22 02:59:24;;;;;;;;;;;;;;;2.84;100.00;102161.16;5016073;28;20012;-70
2022/01/22 03:02:08;;;;;;;;;;;;;;;2.84;100.00;102156.72;5015162;28;19963;-71
2022/01/22 03:04:52;;;;;;;;;;;;;;;2.88;100.00;102149.59;5014762;28;19976;-70
2022/01/22 03:07:39;;;;;;;;;;;;;;;2.84;100.00;102161.16;5016285;28;19928;-70
2022/01/22 03:10:25;;;;;;;;;;;;;;;2.84;100.00;102161.16;5014616;28;20063;-71
2022/01/22 03:13:38;;;;;;;;;;;;;;;2.83;100.00;102162.91;5015988;28;20008;-71
2022/01/22 03:16:44;;;;;;;;;;;;;;;2.81;100.00;102148.94;5015891;28;19924;-71
2022/01/22 03:19:54;;;;;;;;;;;;;;;2.78;100.00;102156.06;5015275;28;19925;-71
2022/01/22 03:28:26;;;;;;;;;;;;;;;2.77;100.00;102142.06;5014801;28;20356;-71
2022/01/22 03:31:10;;;;;;;;;;;;;;;2.78;100.00;102153.44;5015120;28;19979;-71
2022/01/22 03:33:54;;;;;;;;;;;;;;;2.75;100.00;102145.66;5014560;28;19939;-70
2022/01/22 03:36:38;;;;;;;;;;;;;;;2.74;100.00;102150.03;5014730;28;19924;-70
2022/01/22 03:39:22;;;;;;;;;;;;;;;2.78;100.00;102151.69;5014260;28;19980;-71
2022/01/22 03:42:06;;;;;;;;;;;;;;;2.79;100.00;102166.56;5014377;28;19941;-70
2022/01/22 03:44:50;;;;;;;;;;;;;;;2.76;100.00;102173.72;5015584;28;19940;-70
2022/01/22 03:47:34;;;;;;;;;;;;;;;2.77;100.00;102175.44;5015274;28;20012;-70
2022/01/22 03:50:19;;;;;;;;;;;;;;;2.70;100.00;102174.78;5014975;28;20047;-70
2022/01/22 03:53:03;;;;;;;;;;;;;;;2.73;100.00;102168.56;5015163;28;19928;-70
2022/01/22 03:58:41;;;;;;;;;;;;;;;2.71;100.00;102173.00;5014398;28;19923;-71
2022/01/22 04:04:17;;;;;;;;;;;;;;;2.69;100.00;102172.19;5015228;28;19923;-69
2022/01/22 04:07:41;;;;;;;;;;;;;;;2.65;100.00;102170.56;5014879;28;19925;-70
2022/01/22 04:10:14;;;;;;;;;;;;;;;2.69;100.00;102161.63;5014204;28;20388;-71
2022/01/22 04:13:06;;;;;;;;;;;;;;;2.70;100.00;102166.00;5013805;28;19929;-70
2022/01/22 04:15:50;;;;;;;;;;;;;;;2.69;100.00;102162.50;5014494;28;19976;-71
2022/01/22 04:24:50;;;;;;;;;;;;;;;2.82;100.00;102144.56;5014606;28;19940;-71
2022/01/22 04:27:34;;;;;;;;;;;;;;;2.73;100.00;102153.59;5013633;28;19925;-71
2022/01/22 04:30:18;;;;;;;;;;;;;;;2.80;100.00;102154.25;4999214;28;19924;-71
2022/01/22 04:33:04;;;;;;;;;;;;;;;2.80;100.00;102146.34;5014216;28;20396;-70
2022/01/22 04:35:48;;;;;;;;;;;;;;;2.75;100.00;102140.38;5013399;28;19928;-71
2022/01/22 04:38:31;;;;;;;;;;;;;;;2.68;100.00;102142.38;5014331;28;19976;-70
2022/01/22 04:41:16;;;;;;;;;;;;;;;2.69;100.00;102136.19;5013941;28;19924;-71
2022/01/22 04:44:02;;;;;;;;;;;;;;;2.73;100.00;102139.59;5013568;28;19976;-71
2022/01/22 04:46:57;;;;;;;;;;;;;;;2.70;100.00;102145.81;5013123;28;19932;-71
2022/01/22 04:54:58;;;;;;;;;;;;;;;2.70;100.00;102151.06;5013152;28;19928;-71
2022/01/22 04:55:48;;;;;;;;;;;;;;;2.76;100.00;102155.28;5014113;28;19928;-70
2022/01/22 04:58:32;;;;;;;;;;;;;;;2.74;100.00;102151.84;5013107;28;19924;-71
2022/01/22 05:01:16;;;;;;;;;;;;;;;2.74;100.00;102143.94;5013657;28;19925;-71
2022/01/22 05:03:59;;;;;;;;;;;;;;;2.79;100.00;102150.78;5012465;28;19925;-71
2022/01/22 05:06:43;;;;;;;;;;;;;;;2.75;100.00;102143.03;4999024;28;19925;-71
2022/01/22 05:09:27;;;;;;;;;;;;;;;2.79;100.00;102144.63;5013705;28;19925;-70
2022/01/22 05:12:11;;;;;;;;;;;;;;;2.79;100.00;102147.25;5013483;28;19928;-71
2022/01/22 05:14:55;;;;;;;;;;;;;;;2.79;100.00;102153.41;5014290;28;20068;-71
2022/01/22 05:17:41;;;;;;;;;;;;;;;2.86;100.00;102164.59;5013735;28;20289;-71
2022/01/22 05:20:30;;;;;;;;;;;;;;;2.89;100.00;102156.59;5012479;28;20395;-71
2022/01/22 05:23:19;;;;;;;;;;;;;;;2.90;100.00;102171.47;5012449;28;19988;-69
2022/01/22 05:26:08;;;;;;;;;;;;;;;2.88;100.00;102168.03;5013669;28;20445;-71
2022/01/22 05:37:34;;;;;;;;;;;;;;;2.86;100.00;102181.28;5012617;28;20329;-70
2022/01/22 05:40:18;;;;;;;;;;;;;;;2.86;100.00;102186.56;5012693;28;19983;-70
2022/01/22 05:43:05;;;;;;;;;;;;;;;2.96;100.00;102181.81;5013222;28;19924;-71
2022/01/22 05:45:49;;;;;;;;;;;;;;;2.95;100.00;102185.38;5013250;28;19924;-71
2022/01/22 05:48:33;;;;;;;;;;;;;;;2.95;100.00;102182.75;5012414;28;19924;-70
2022/01/22 05:51:18;;;;;;;;;;;;;;;2.96;100.00;102181.81;5013465;28;19935;-70
2022/01/22 06:00:00;;;;;;;;;;;;;;;2.98;100.00;102174.72;5012330;28;19987;-71
2022/01/22 06:02:44;;;;;;;;;;;;;;;3.01;100.00;102177.25;5013635;28;19924;-71
2022/01/22 06:05:28;;;;;;;;;;;;;;;3.00;100.00;102180.81;5012308;28;20336;-71
2022/01/22 06:08:16;;;;;;;;;;;;;;;3.02;100.00;102181.63;5013222;28;19924;-69
2022/01/22 06:11:07;;;;;;;;;;;;;;;3.08;100.00;102181.41;5012962;28;19932;-71
2022/01/22 06:13:52;;;;;;;;;;;;;;;3.06;100.00;102176.19;5013828;28;19980;-71
2022/01/22 06:16:36;;;;;;;;;;;;;;;3.06;100.00;102172.72;5015543;28;19928;-71
2022/01/22 06:19:20;;;;;;;;;;;;;;;3.10;100.00;102172.56;5016837;28;19925;-71
2022/01/22 06:22:04;;;;;;;;;;;;;;;3.06;100.00;102177.97;5016897;28;20016;-71
2022/01/22 06:24:48;;;;;;;;;;;;;;;3.10;100.00;102184.84;5015613;28;19924;-71
2022/01/22 06:27:32;;;;;;;;;;;;;;;3.11;100.00;102194.47;5015971;28;19924;-71
2022/01/22 06:30:15;;;;;;;;;;;;;;;3.14;100.00;102189.97;5016646;28;20289;-71
2022/01/22 06:32:59;;;;;;;;;;;;;;;3.17;100.00;102189.03;5016540;28;19979;-70
2022/01/22 06:35:43;;;;;;;;;;;;;;;3.15;100.00;102182.94;5015911;28;20273;-70
2022/01/22 06:38:27;;;;;;;;;;;;;;;3.14;100.00;102179.44;5016646;28;19928;-70
2022/01/22 06:44:18;;;;;;;;;;;;;;;3.17;100.00;102191.66;5015723;28;19972;-71
2022/01/22 06:47:02;;;;;;;;;;;;;;;3.15;100.00;102193.47;5016516;28;19995;-70
2022/01/22 06:49:46;;;;;;;;;;;;;;;3.18;100.00;102214.47;5015024;28;20364;-71
2022/01/22 06:52:30;;;;;;;;;;;;;;;3.24;100.00;102209.00;5015425;28;19928;-71
2022/01/22 06:55:17;;;;;;;;;;;;;;;3.19;100.00;102217.06;5016117;28;20361;-70
2022/01/22 06:58:01;;;;;;;;;;;;;;;3.24;100.00;102216.91;5015495;28;20076;-71
2022/01/22 07:00:45;;;;;;;;;;;;;;;3.21;100.00;102214.34;5015890;28;19924;-72
2022/01/22 07:03:30;;;;;;;;;;;;;;;3.21;100.00;102223.13;5016407;28;19924;-71
2022/01/22 07:06:14;;;;;;;;;;;;;;;3.23;100.00;102223.09;5001620;28;19928;-71
2022/01/22 07:08:58;;;;;;;;;;;;;;;3.29;100.00;102234.28;5015012;28;19924;-71
2022/01/22 07:11:42;;;;;;;;;;;;;;;3.24;100.00;102230.09;5014886;28;19972;-71
2022/01/22 07:14:26;;;;;;;;;;;;;;;3.32;100.00;102233.28;5014902;28;19950;-71
2022/01/22 07:17:11;;;;;;;;;;;;;;;3.35;100.00;102243.75;5015817;28;20422;-71
2022/01/22 07:19:55;;;;;;;;;;;;;;;3.27;100.00;102251.06;5016277;28;20300;-72
2022/01/22 07:22:52;;;;;;;;;;;;;;;3.29;100.00;102244.84;5015941;28;19964;-71
2022/01/22 07:25:35;;;;;;;;;;;;;;;3.30;100.00;102250.94;5014277;28;19964;-71
2022/01/22 07:28:19;;;;;;;;;;;;;;;3.31;100.00;102248.28;5015617;28;19963;-71
2022/01/22 07:31:03;;;;;;;;;;;;;;;3.34;100.00;102249.94;5014479;28;20012;-71
2022/01/22 07:33:47;;;;;;;;;;;;;;;3.39;100.00;102245.38;5015673;28;20453;-71
2022/01/22 07:36:31;;;;;;;;;;;;;;;3.36;100.00;102256.03;5014547;28;19925;-70
2022/01/22 07:39:15;;;;;;;;;;;;;;;3.39;100.00;102246.25;5015464;28;20016;-71
2022/01/22 07:41:59;;;;;;;;;;;;;;;3.37;100.00;102248.09;5014265;28;20016;-71
2022/01/22 07:44:43;;;;;;;;;;;;;;;3.39;100.00;102248.00;5014396;28;19925;-70
2022/01/22 07:47:27;;;;;;;;;;;;;;;3.39;100.00;102248.88;5014609;28;20435;-72
2022/01/22 07:50:11;;;;;;;;;;;;;;;3.39;100.00;102242.72;5014107;28;20399;-71
2022/01/22 07:52:57;;;;;;;;;;;;;;;3.37;100.00;102252.47;5000097;28;20416;-72
2022/01/22 07:55:41;;;;;;;;;;;;;;;3.43;100.00;102247.00;5015522;28;20388;-71
2022/01/22 07:58:25;;;;;;;;;;;;;;;3.48;100.00;102240.66;5016896;28;19924;-71
2022/01/22 08:01:09;;;;;;;;;;;;;;;3.43;100.00;102253.13;5015999;28;19940;-71
2022/01/22 08:03:53;;;;;;;;;;;;;;;3.54;100.00;102251.00;5013999;28;19996;-72
2022/01/22 08:06:37;;;;;;;;;;;;;;;3.50;100.00;102248.50;5014263;28;19940;-72
2022/01/22 08:09:21;;;;;;;;;;;;;;;3.51;100.00;102239.69;5014860;28;19925;-70
2022/01/22 08:12:06;;;;;;;;;;;;;;;3.51;100.00;102239.69;4999573;28;19976;-71
2022/01/22 08:14:49;;;;;;;;;;;;;;;3.57;100.00;102239.47;5013797;28;19924;-72
2022/01/22 08:17:33;;;;;;;;;;;;;;;3.59;100.00;102229.72;5015006;28;20289;-72
2022/01/22 08:20:17;;;;;;;;;;;;;;;3.64;100.00;102230.44;5013438;28;19955;-71
2022/01/22 08:23:01;;;;;;;;;;;;;;;3.71;100.00;102237.22;5014709;28;20347;-69
2022/01/22 08:25:46;;;;;;;;;;;;;;;3.74;100.00;102240.63;5013941;28;20071;-70
2022/01/22 08:37:21;;;;;;;;;;;;;;;3.78;100.00;102249.28;5013558;28;19940;-70
2022/01/22 08:40:06;;;;;;;;;;;;;;;3.75;100.00;102257.31;5014539;28;20100;-71
2022/01/22 08:42:50;;;;;;;;;;;;;;;3.83;100.00;102249.97;5013100;28;19924;-71
2022/01/22 08:45:34;;;;;;;;;;;;;;;3.84;100.00;102249.09;5014036;28;19964;-72
2022/01/22 08:48:18;;;;;;;;;;;;;;;3.93;100.00;102259.28;5013196;28;19971;-71
2022/01/22 08:51:02;;;;;;;;;;;;;;;3.87;100.00;102259.53;4998934;28;20442;-71
2022/01/22 08:53:47;;;;;;;;;;;;;;;3.95;100.00;102260.13;5014138;28;20388;-71
2022/01/22 08:56:30;;;;;;;;;;;;;;;3.94;100.00;102261.88;5012310;28;19928;-71
2022/01/22 08:59:14;;;;;;;;;;;;;;;3.97;100.00;102263.56;5011777;28;19928;-71
2022/01/22 09:01:59;;;;;;;;;;;;;;;3.98;100.00;102262.63;5013898;28;19925;-71
2022/01/22 09:04:43;;;;;;;;;;;;;;;3.98;100.00;102257.34;5012088;28;19925;-70
2022/01/22 09:07:26;;;;;;;;;;;;;;;4.08;100.00;102253.47;5012941;28;19979;-70
2022/01/22 09:10:11;;;;;;;;;;;;;;;4.15;100.00;102257.63;5013714;28;19940;-70
2022/01/22 09:12:54;;;;;;;;;;;;;;;4.15;100.00;102263.75;5013006;28;20376;-71
2022/01/22 09:15:38;;;;;;;;;;;;;;;4.19;100.00;102251.28;5012895;28;19932;-71
2022/01/22 09:18:23;;;;;;;;;;;;;;;4.13;100.00;102255.03;5013751;28;19924;-71
2022/01/22 09:21:08;;;;;;;;;;;;;;;4.28;100.00;102256.25;5012822;28;19977;-71
2022/01/22 09:23:52;;;;;;;;;;;;;;;4.33;100.00;102262.19;5012737;28;20456;-71
2022/01/22 09:26:36;;;;;;;;;;;;;;;4.22;100.00;102277.56;5012657;28;19944;-70
2022/01/22 09:29:20;;;;;;;;;;;;;;;4.26;100.00;102268.66;5012412;28;20020;-70
2022/01/22 09:32:04;;;;;;;;;;;;;;;4.34;100.00;102271.84;5013285;28;19929;-70
2022/01/22 09:34:48;;;;;;;;;;;;;;;4.36;100.00;102270.03;5013328;28;20040;-70
2022/01/22 09:37:32;;;;;;;;;;;;;;;4.36;100.00;102272.66;5013536;28;19975;-71
2022/01/22 09:40:16;;;;;;;;;;;;;;;4.46;100.00;102276.69;5012196;28;20013;-70
2022/01/22 09:43:00;;;;;;;;;;;;;;;4.52;100.00;102281.72;5013294;28;19924;-70
2022/01/22 09:45:43;;;;;;;;;;;;;;;4.58;100.00;102287.63;5012483;28;19936;-71
2022/01/22 09:48:27;;;;;;;;;;;;;;;4.48;100.00;102291.53;5013408;28;19929;-70
2022/01/22 09:51:11;;;;;;;;;;;;;;;4.58;100.00;102287.63;5016015;28;20392;-71
2022/01/22 09:53:55;;;;;;;;;;;;;;;4.61;100.00;102284.91;5016199;28;20059;-71
2022/01/22 09:56:41;;;;;;;;;;;;;;;4.59;100.00;102292.00;5016373;28;20016;-70
2022/01/22 09:59:25;;;;;;;;;;;;;;;4.76;100.00;102294.03;5016076;28;19940;-71
2022/01/22 10:02:10;;;;;;;;;;;;;;;4.76;100.00;102297.50;5002678;28;19925;-70
2022/01/22 10:04:54;;;;;;;;;;;;;;;4.70;100.00;102295.09;5017271;28;19923;-71
2022/01/22 10:07:38;;;;;;;;;;;;;;;4.78;100.00;102300.09;5016175;28;19924;-71
2022/01/22 10:10:22;;;;;;;;;;;;;;;4.88;100.00;102312.03;5017165;28;20285;-71
2022/01/22 10:13:06;;;;;;;;;;;;;;;4.77;100.00;102303.66;5016847;28;20456;-71
2022/01/22 10:15:50;;;;;;;;;;;;;;;4.77;100.00;102299.22;5016290;28;20062;-70
2022/01/22 10:18:34;;;;;;;;;;;;;;;4.89;100.00;102303.19;5016975;28;20411;-71
2022/01/22 10:21:18;;;;;;;;;;;;;;;4.90;100.00;102302.25;5016566;28;19924;-71
2022/01/22 10:24:20;;;;;;;;;;;;;;;4.82;100.00;102307.84;5016905;28;19925;-71
2022/01/22 10:30:16;;;;;;;;;;;;;;;4.97;100.00;102313.41;5016688;28;20285;-70
2022/01/22 10:33:10;;;;;;;;;;;;;;;5.03;100.00;102307.88;5015402;28;19975;-70
2022/01/22 10:36:16;;;;;;;;;;;;;;;5.00;100.00;102293.91;5015768;28;19923;-69
2022/01/22 10:39:00;;;;;;;;;;;;;;;5.03;100.00;102296.44;5016299;28;19983;-70
2022/01/22 10:41:43;;;;;;;;;;;;;;;4.95;100.00;102299.38;5001477;28;19940;-70
2022/01/22 10:44:37;;;;;;;;;;;;;;;5.22;100.00;102302.72;5016529;28;19928;-71
2022/01/22 10:47:22;;;;;;;;;;;;;;;5.25;100.00;102284.09;5016242;28;20344;-70
2022/01/22 10:50:22;;;;;;;;;;;;;;;5.21;100.00;102280.69;5015379;28;20288;-70
2022/01/22 10:53:06;;;;;;;;;;;;;;;5.26;100.00;102278.75;5016102;28;19928;-70
2022/01/22 10:56:00;;;;;;;;;;;;;;;5.39;100.00;102279.97;5015995;28;20388;-70
2022/01/22 10:59:00;;;;;;;;;;;;;;;5.30;100.00;102275.03;5015190;28;19975;-70
2022/01/22 11:01:48;;;;;;;;;;;;;;;5.24;100.00;102272.63;5015288;28;20059;-70
2022/01/22 11:04:34;;;;;;;;;;;;;;;5.22;100.00;102271.84;5014923;28;19925;-70
2022/01/22 11:07:19;;;;;;;;;;;;;;;5.17;100.00;102268.53;5014756;28;20427;-69
2022/01/22 11:10:04;;;;;;;;;;;;;;;5.21;100.00;102270.13;5014804;28;20018;-70
2022/01/22 11:12:47;;;;;;;;;;;;;;;5.35;100.00;102267.75;5014554;28;19947;-70
2022/01/22 11:15:31;;;;;;;;;;;;;;;5.34;100.00;102271.34;5015909;28;19968;-70
2022/01/22 11:18:16;;;;;;;;;;;;;;;5.40;100.00;102272.88;5014847;28;20011;-70
2022/01/22 11:21:00;;;;;;;;;;;;;;;5.45;100.00;102274.41;5014896;28;20028;-70
2022/01/22 11:23:45;;;;;;;;;;;;;;;5.44;100.00;102277.13;5014760;28;19971;-70
2022/01/22 11:26:29;;;;;;;;;;;;;;;5.49;100.00;102270.72;5000806;28;19925;-70
2022/01/22 11:29:13;;;;;;;;;;;;;;;5.39;100.00;102272.03;5015640;28;19925;-70
2022/01/22 11:31:59;;;;;;;;;;;;;;;5.50;100.00;102280.38;5014594;28;19932;-70
2022/01/22 11:34:43;;;;;;;;;;;;;;;5.52;100.00;102278.50;5024333;22;19924;-71
2022/01/22 11:37:27;;;;;;;;;;;;;;;5.46;100.00;102281.41;4980767;28;19975;-72
2022/01/22 11:40:15;;;;;;;;;;;;;;;5.50;100.00;102280.38;4994814;28;19924;-72
2022/01/22 11:43:12;;;;;;;;;;;;;;;5.50;100.00;102285.66;4994887;28;19987;-71
2022/01/22 11:45:57;;;;;;;;;;;;;;;5.45;100.00;102284.97;4995992;28;19925;-72
2022/01/22 11:48:41;;;;;;;;;;;;;;;5.55;100.00;102286.31;4994832;28;19924;-72
2022/01/22 11:51:25;;;;;;;;;;;;;;;5.44;100.00;102288.53;4994442;28;19929;-72
2022/01/22 11:54:09;;;;;;;;;;;;;;;5.45;100.00;102281.47;4994517;28;20285;-72
2022/01/22 11:56:54;;;;;;;;;;;;;;;5.64;100.00;102282.44;4994567;28;20428;-72
2022/01/22 11:59:38;;;;;;;;;;;;;;;5.59;100.00;102279.13;4980919;28;20400;-72
2022/01/22 12:02:22;;;;;;;;;;;;;;;5.52;100.00;102282.97;4994494;28;19925;-71
2022/01/22 12:05:07;;;;;;;;;;;;;;;5.52;100.00;102278.50;4980737;28;20025;-72
2022/01/22 12:07:57;;;;;;;;;;;;;;;5.68;100.00;102276.97;4994733;28;20372;-72
2022/01/22 12:10:43;;;;;;;;;;;;;;;5.55;100.00;102281.03;4995375;28;19959;-71
2022/01/22 12:16:40;;;;;;;;;;;;;;;5.59;100.00;102271.19;4994479;28;19925;-72
2022/01/22 12:19:36;;;;;;;;;;;;;;;5.70;100.00;102280.41;4995465;28;19976;-72
2022/01/22 12:22:30;;;;;;;;;;;;;;;5.68;100.00;102271.66;4994904;28;19924;-72
2022/01/22 12:25:14;;;;;;;;;;;;;;;5.75;100.00;102273.09;4994789;28;19926;-71
2022/01/22 12:27:58;;;;;;;;;;;;;;;5.63;100.00;102268.34;4994880;28;19929;-70
2022/01/22 12:30:44;;;;;;;;;;;;;;;5.64;100.00;102272.69;4995336;28;20245;-71
2022/01/22 12:33:27;;;;;;;;;;;;;;;5.81;100.00;102266.72;4993959;28;19980;-72
2022/01/22 12:36:17;;;;;;;;;;;;;;;5.86;100.00;102262.94;4994521;28;19968;-72
2022/01/22 12:39:11;;;;;;;;;;;;;;;5.91;100.00;102258.31;4993612;28;19972;-72
2022/01/22 12:41:57;;;;;;;;;;;;;;;6.00;100.00;102257.94;4994109;28;20011;-72
2022/01/22 12:44:49;;;;;;;;;;;;;;;6.08;100.00;102255.81;4993527;28;19925;-72
2022/01/22 12:47:36;;;;;;;;;;;;;;;6.13;100.00;102253.78;4993757;28;19963;-72
2022/01/22 12:50:26;;;;;;;;;;;;;;;6.19;100.00;102252.66;4993521;28;20281;-72
2022/01/22 12:53:11;;;;;;;;;;;;;;;6.17;100.00;102255.38;4993622;28;20021;-72
2022/01/22 12:58:40;;;;;;;;;;;;;;;6.39;100.00;102247.31;4993721;28;19925;-72
2022/01/22 13:01:27;;;;;;;;;;;;;;;6.22;100.00;102261.34;4993161;28;19925;-72
2022/01/22 13:04:11;;;;;;;;;;;;;;;6.22;100.00;102253.38;4980098;28;19924;-72
2022/01/22 13:06:54;;;;;;;;;;;;;;;6.32;100.00;102238.81;4994109;28;19925;-72
2022/01/22 13:09:39;;;;;;;;;;;;;;;6.44;100.00;102246.19;4993158;28;20516;-72
2022/01/22 13:12:25;;;;;;;;;;;;;;;6.61;100.00;102246.28;4993125;28;19976;-72
2022/01/22 13:15:10;;;;;;;;;;;;;;;6.68;100.00;102242.38;4993991;28;19972;-72
2022/01/22 13:17:55;;;;;;;;;;;;;;;6.36;100.00;102244.81;4993261;28;19925;-72
2022/01/22 13:20:41;;;;;;;;;;;;;;;6.44;100.00;102245.31;4994237;28;19964;-72
2022/01/22 13:23:25;;;;;;;;;;;;;;;6.08;100.00;102241.69;4979289;28;19980;-72
2022/01/22 13:26:09;;;;;;;;;;;;;;;6.21;100.00;102241.06;4994039;28;19940;-72
2022/01/22 13:28:55;;;;;;;;;;;;;;;6.27;100.00;102246.09;4993148;28;20282;-73
2022/01/22 13:31:39;;;;;;;;;;;;;;;6.23;100.00;102249.81;4994050;28;19972;-72
2022/01/22 13:34:35;;;;;;;;;;;;;;;6.08;100.00;102244.34;4992901;28;19985;-72
2022/01/22 13:41:04;;;;;;;;;;;;;;;6.12;100.00;102248.56;4953596;29;20385;-71
2022/01/22 13:49:55;;;;;;;;;;;;;;;6.06;100.00;102247.03;4993981;28;20265;-72
2022/01/22 13:52:39;;;;;;;;;;;;;;;6.11;100.00;102242.41;4992831;28;19929;-72
2022/01/22 13:55:24;;;;;;;;;;;;;;;6.15;100.00;102240.50;4979004;28;20309;-72
2022/01/22 13:58:18;;;;;;;;;;;;;;;6.11;100.00;102233.59;4993782;28;19929;-72
2022/01/22 14:01:16;;;;;;;;;;;;;;;6.18;100.00;102238.53;4992920;28;20025;-72
2022/01/22 14:04:06;;;;;;;;;;;;;;;6.21;100.00;102235.78;4993652;28;19929;-72
2022/01/22 14:06:50;;;;;;;;;;;;;;;6.28;100.00;102229.25;4992906;28;19929;-72
2022/01/22 14:09:34;;;;;;;;;;;;;;;6.15;100.00;102232.56;4993796;28;19928;-72
2022/01/22 14:12:18;;;;;;;;;;;;;;;6.06;100.00;102225.88;4992372;28;19976;-72
2022/01/22 14:15:06;;;;;;;;;;;;;;;6.12;100.00;102225.59;4978948;28;19945;-73
2022/01/22 14:18:08;;;;;;;;;;;;;;;6.03;100.00;102220.72;4978664;28;19924;-72
2022/01/22 14:21:08;;;;;;;;;;;;;;;6.10;100.00;102227.47;4992695;28;19944;-73
2022/01/22 14:23:52;;;;;;;;;;;;;;;6.01;100.00;102219.94;4992332;28;19925;-72
2022/01/22 14:26:36;;;;;;;;;;;;;;;5.97;100.00;102225.44;4993298;28;20013;-72
2022/01/22 14:29:20;;;;;;;;;;;;;;;5.86;100.00;102238.28;4978958;28;20286;-70
2022/01/22 14:32:04;;;;;;;;;;;;;;;5.95;100.00;102233.44;4993634;28;19929;-72
2022/01/22 14:34:48;;;;;;;;;;;;;;;5.97;100.00;102238.66;4978230;28;19925;-74
2022/01/22 14:37:33;;;;;;;;;;;;;;;5.97;100.00;102246.59;4996556;28;19921;-74
2022/01/22 14:46:04;;;;;;;;;;;;;;;5.81;100.00;102250.84;4995916;28;19924;-74
2022/01/22 14:48:49;;;;;;;;;;;;;;;5.74;100.00;102252.00;4995855;28;19976;-72
2022/01/22 14:51:32;;;;;;;;;;;;;;;5.78;100.00;102249.19;4995875;28;19928;-74
2022/01/22 14:54:19;;;;;;;;;;;;;;;5.86;100.00;102255.00;4995623;28;20289;-74
2022/01/22 14:57:03;;;;;;;;;;;;;;;5.81;100.00;102250.84;4995619;28;19925;-74
2022/01/22 14:59:47;;;;;;;;;;;;;;;5.71;100.00;102249.47;4995594;28;19925;-72
2022/01/22 15:02:32;;;;;;;;;;;;;;;5.76;100.00;102252.81;4995770;28;19973;-74
2022/01/22 15:05:16;;;;;;;;;;;;;;;5.72;100.00;102257.38;4995617;28;20400;-73
2022/01/22 15:07:59;;;;;;;;;;;;;;;5.67;100.00;102254.06;4981835;28;20420;-74
2022/01/22 15:10:44;;;;;;;;;;;;;;;5.65;100.00;102255.06;4996674;28;19929;-73
2022/01/22 15:13:28;;;;;;;;;;;;;;;5.76;100.00;102255.44;4996267;28;19949;-74
2022/01/22 15:16:16;;;;;;;;;;;;;;;5.69;100.00;102262.81;4996264;28;19964;-72
2022/01/22 15:19:03;;;;;;;;;;;;;;;5.58;100.00;102265.03;4996720;28;19924;-74
2022/01/22 15:21:49;;;;;;;;;;;;;;;5.74;100.00;102271.38;4995368;28;19924;-74
2022/01/22 15:24:32;;;;;;;;;;;;;;;5.64;100.00;102266.56;4996445;28;19925;-74
2022/01/22 15:27:17;;;;;;;;;;;;;;;5.57;100.00;102259.81;4996030;28;19991;-73
2022/01/22 15:30:11;;;;;;;;;;;;;;;5.52;100.00;102260.00;4981780;28;19925;-73
2022/01/22 15:33:17;;;;;;;;;;;;;;;5.52;100.00;102273.22;4995165;28;19972;-74
2022/01/22 15:36:01;;;;;;;;;;;;;;;5.57;100.00;102267.75;4995839;28;20393;-74
2022/01/22 15:38:45;;;;;;;;;;;;;;;5.56;100.00;102280.09;4995168;28;20388;-74
2022/01/22 15:41:29;;;;;;;;;;;;;;;5.61;100.00;102270.19;4995988;28;19928;-74
2022/01/22 15:44:13;;;;;;;;;;;;;;;5.50;100.00;102274.19;4996007;28;19928;-74
2022/01/22 15:46:56;;;;;;;;;;;;;;;5.47;100.00;102285.81;4994292;28;19925;-73
2022/01/22 15:49:43;;;;;;;;;;;;;;;5.57;100.00;102284.50;4995197;28;19925;-74
2022/01/22 15:52:27;;;;;;;;;;;;;;;5.53;100.00;102277.59;4994724;28;19933;-74
2022/01/22 15:55:11;;;;;;;;;;;;;;;5.53;100.00;102285.53;4994411;28;20021;-74
2022/01/22 15:57:56;;;;;;;;;;;;;;;5.42;100.00;102293.03;4995689;28;19925;-74